Time;durP1;ratioP1;P1;durP2;ratioP2;P2;SDS_P1;SDS_P2;PMS_P1;PMS_P2;Temp;Humidity;BMP_temperature;BMP_pressure;BME280_temperature;BME280_humidity;BME280_pressure;Samples;Min_cycle;Max_cycle;Signal;HPM_P1;HPM_P2
2022/04/04 00:00:52;;;;;;;12.18;5.90;;;;;;;-149.78;100.00;50416.69;5059243;28;20032;-69
2022/04/04 00:03:18;;;;;;;11.02;6.13;;;;;;;-149.78;100.00;50350.19;5070407;28;20040;-70
2022/04/04 00:05:44;;;;;;;12.50;6.07;;;;;;;-149.78;100.00;50393.22;5077251;28;20107;-69
2022/04/04 00:08:10;;;;;;;14.70;6.60;;;;;;;-149.78;100.00;50393.22;5081801;28;20028;-70
2022/04/04 00:10:36;;;;;;;12.70;6.40;;;;;;;-149.78;100.00;50381.47;5084584;28;20040;-70
2022/04/04 00:13:02;;;;;;;17.50;6.53;;;;;;;-149.78;100.00;50399.09;5076214;28;20093;-70
2022/04/04 00:15:27;;;;;;;14.38;6.47;;;;;;;-149.78;100.00;50373.66;5087484;28;20101;-70
2022/04/04 00:17:55;;;;;;;13.85;7.00;;;;;;;-149.78;100.00;50455.81;5077680;28;20044;-70
2022/04/04 00:20:22;;;;;;;12.82;6.72;;;;;;;-149.78;100.00;50399.09;5081542;28;20040;-70
2022/04/04 00:22:48;;;;;;;13.93;6.82;;;;;;;-149.78;100.00;50428.41;5070502;28;20029;-70
2022/04/04 00:25:14;;;;;;;13.75;6.50;;;;;;;-149.78;100.00;50385.38;5087135;28;20044;-70
2022/04/04 00:27:40;;;;;;;13.85;6.57;;;;;;;-149.78;100.00;50369.75;5077012;28;20162;-70
2022/04/04 00:30:07;;;;;;;15.40;6.15;;;;;;;-149.78;100.00;50369.75;5082182;28;20043;-70
2022/04/04 00:32:33;;;;;;;12.20;6.47;;;;;;;-149.78;100.00;50397.13;5080189;28;20380;-71
2022/04/04 00:35:00;;;;;;;16.02;6.72;;;;;;;-149.78;100.00;50404.94;5057698;28;20484;-70
2022/04/04 00:37:26;;;;;;;14.10;6.40;;;;;;;-149.78;100.00;50408.84;5091125;28;20040;-71
2022/04/04 00:39:52;;;;;;;14.43;7.30;;;;;;;-149.78;100.00;50375.63;5085121;28;20146;-70
2022/04/04 00:42:18;;;;;;;15.02;6.32;;;;;;;-149.78;100.00;50420.59;5047410;28;20040;-71
2022/04/04 00:44:45;;;;;;;11.57;6.18;;;;;;;-149.78;100.00;50381.47;5091473;28;20044;-70
2022/04/04 00:47:11;;;;;;;12.32;6.70;;;;;;;-149.78;100.00;50430.38;5073793;28;20680;-70
2022/04/04 00:49:38;;;;;;;9.85;6.05;;;;;;;-149.78;100.00;50418.63;5057429;28;20044;-71
2022/04/04 00:52:05;;;;;;;11.82;5.82;;;;;;;-149.78;100.00;50356.06;5065599;28;20040;-71
2022/04/04 00:54:31;;;;;;;11.82;5.82;;;;;;;-149.78;100.00;50391.25;5065407;28;20044;-72
2022/04/04 00:56:57;;;;;;;11.43;6.07;;;;;;;-149.78;100.00;50432.31;5076005;28;20503;-71
2022/04/04 00:59:24;;;;;;;12.80;6.60;;;;;;;-149.78;100.00;50371.69;5088476;28;20111;-71
2022/04/04 01:01:49;;;;;;;13.07;5.60;;;;;;;-149.78;100.00;50420.59;5053924;28;20541;-71
2022/04/04 01:04:16;;;;;;;11.13;6.05;;;;;;;-149.78;100.00;50369.75;5080205;28;20040;-71
2022/04/04 01:06:45;;;;;;;10.45;5.95;;;;;;;-149.78;100.00;50377.56;5084412;28;20032;-71
2022/04/04 01:09:17;;;;;;;10.70;5.40;;;;;;;-149.78;100.00;50404.94;5077870;28;20460;-71
2022/04/04 01:12:08;;;;;;;13.00;5.85;;;;;;;-149.78;100.00;50365.84;5094556;28;20031;-71
2022/04/04 01:14:46;;;;;;;8.45;5.30;;;;;;;-149.78;100.00;50377.56;5065336;28;20102;-71
2022/04/04 01:17:14;;;;;;;7.85;5.20;;;;;;;-149.78;100.00;50385.38;5075365;28;20029;-71
2022/04/04 01:19:39;;;;;;;9.80;4.75;;;;;;;-149.78;100.00;50381.47;5080135;28;20032;-71
2022/04/04 01:22:08;;;;;;;9.38;4.60;;;;;;;-149.78;100.00;50432.31;5087517;28;20066;-71
2022/04/04 01:24:37;;;;;;;11.35;4.80;;;;;;;-149.78;100.00;50420.59;5074192;28;20041;-72
2022/04/04 01:27:03;;;;;;;7.85;4.53;;;;;;;-149.78;100.00;50397.13;5090772;28;20054;-71
2022/04/04 01:29:29;;;;;;;10.25;4.93;;;;;;;-149.78;100.00;50379.53;5094440;28;20032;-72
2022/04/04 01:31:55;;;;;;;9.35;4.78;;;;;;;-149.78;100.00;50365.84;5072790;28;20059;-72
2022/04/04 01:34:22;;;;;;;6.72;3.85;;;;;;;-149.78;100.00;50408.84;5084261;28;20413;-71
2022/04/04 01:36:48;;;;;;;9.32;4.00;;;;;;;-149.78;100.00;50401.03;5095170;28;20089;-71
2022/04/04 01:39:14;;;;;;;6.78;3.95;;;;;;;-149.78;100.00;50393.22;5076350;28;20050;-71
2022/04/04 01:41:40;;;;;;;8.02;4.22;;;;;;;-149.78;100.00;50389.31;5079846;28;20024;-71
2022/04/04 01:44:07;;;;;;;6.28;3.55;;;;;;;-149.78;100.00;50403.00;5093679;28;20040;-71
2022/04/04 01:46:33;;;;;;;8.23;3.95;;;;;;;-149.78;100.00;50389.31;5093432;28;20039;-71
2022/04/04 01:49:01;;;;;;;12.13;3.83;;;;;;;-149.78;100.00;50385.38;5077010;28;20036;-71
2022/04/04 01:51:27;;;;;;;6.88;3.83;;;;;;;-149.78;100.00;50393.22;5078907;28;20029;-71
2022/04/04 01:53:53;;;;;;;8.43;3.28;;;;;;;-149.78;100.00;50369.75;5081601;28;20047;-71
2022/04/04 01:56:20;;;;;;;7.38;4.75;;;;;;;-149.78;100.00;50414.72;5092330;28;20024;-72
2022/04/04 01:58:46;;;;;;;6.35;3.47;;;;;;;-149.78;100.00;50381.47;5082009;28;20134;-72
2022/04/04 02:01:14;;;;;;;5.25;3.53;;;;;;;-149.78;100.00;50410.81;5050093;28;20047;-71
2022/04/04 02:03:41;;;;;;;7.65;3.65;;;;;;;-149.78;100.00;50416.69;5088423;28;20032;-72
2022/04/04 02:06:07;;;;;;;5.90;3.20;;;;;;;-149.78;100.00;50393.22;5079478;28;20028;-72
2022/04/04 02:08:33;;;;;;;4.82;3.58;;;;;;;-149.78;100.00;50412.78;5093885;28;20032;-72
2022/04/04 02:11:00;;;;;;;5.07;3.55;;;;;;;-149.78;100.00;50424.50;5079266;28;20033;-72
2022/04/04 02:13:26;;;;;;;5.15;3.28;;;;;;;-149.78;100.00;50369.75;5072243;28;20048;-72
2022/04/04 02:15:52;;;;;;;8.13;3.63;;;;;;;-149.78;100.00;50375.63;5080753;28;20035;-71
2022/04/04 02:18:19;;;;;;;4.72;3.13;;;;;;;-149.78;100.00;50416.69;5094799;28;20143;-71
2022/04/04 02:20:46;;;;;;;4.70;3.40;;;;;;;-149.78;100.00;50379.53;5088009;28;20446;-72
2022/04/04 02:23:12;;;;;;;5.13;3.20;;;;;;;-149.78;100.00;50381.47;5085544;28;20039;-71
2022/04/04 02:25:37;;;;;;;5.53;3.65;;;;;;;-149.78;100.00;50395.16;5090013;28;20028;-71
2022/04/04 02:28:03;;;;;;;5.53;3.53;;;;;;;-149.78;100.00;50404.94;5094593;28;20038;-72
2022/04/04 02:30:29;;;;;;;6.55;3.50;;;;;;;-149.78;100.00;50369.75;5079141;28;20032;-72
2022/04/04 02:32:55;;;;;;;6.13;3.70;;;;;;;-149.78;100.00;50373.66;5079047;28;20082;-72
2022/04/04 02:35:20;;;;;;;6.38;3.97;;;;;;;-149.78;100.00;50389.31;5092468;28;20135;-71
2022/04/04 02:37:47;;;;;;;6.18;3.65;;;;;;;-149.78;100.00;50379.53;5076206;28;20038;-71
2022/04/04 02:40:12;;;;;;;9.95;4.22;;;;;;;-149.78;100.00;50373.66;5084614;28;20059;-71
2022/04/04 02:42:38;;;;;;;5.63;4.00;;;;;;;-149.78;100.00;50377.56;5073826;28;20430;-72
2022/04/04 02:45:04;;;;;;;7.20;4.35;;;;;;;-149.78;100.00;50373.66;5072738;28;20111;-71
2022/04/04 02:47:30;;;;;;;6.10;3.97;;;;;;;-149.78;100.00;50358.00;5073699;28;20028;-72
2022/04/04 02:49:56;;;;;;;5.60;3.60;;;;;;;-149.78;100.00;50416.69;5080959;28;20046;-71
2022/04/04 02:52:21;;;;;;;7.88;4.53;;;;;;;-149.78;100.00;50365.84;5059251;28;20043;-72
2022/04/04 02:54:47;;;;;;;6.28;4.57;;;;;;;-149.78;100.00;50389.31;5082653;28;20028;-72
2022/04/04 02:57:16;;;;;;;7.32;4.43;;;;;;;-149.78;100.00;50406.91;5073220;28;20541;-72
2022/04/04 02:59:42;;;;;;;7.30;4.45;;;;;;;-149.78;100.00;50383.44;5069164;28;20039;-72
2022/04/04 03:02:08;;;;;;;6.30;4.47;;;;;;;-149.78;100.00;50397.13;5066739;28;20376;-72
2022/04/04 03:04:35;;;;;;;7.25;4.93;;;;;;;-149.78;100.00;50408.84;5067976;28;20036;-72
2022/04/04 03:07:00;;;;;;;7.75;4.72;;;;;;;-149.78;100.00;50377.56;5075949;28;20036;-73
2022/04/04 03:09:27;;;;;;;10.40;6.28;;;;;;;-149.78;100.00;50373.66;5078266;28;20087;-72
2022/04/04 03:11:54;;;;;;;8.35;5.53;;;;;;;-149.78;100.00;50389.31;5093266;28;20051;-72
2022/04/04 03:14:20;;;;;;;8.30;5.32;;;;;;;-149.78;100.00;50393.22;5084057;28;20048;-73
2022/04/04 03:16:45;;;;;;;9.82;5.35;;;;;;;-149.78;100.00;50342.38;5088144;28;20062;-72
2022/04/04 03:19:11;;;;;;;7.25;4.75;;;;;;;-149.78;100.00;50377.56;5077992;28;20139;-72
2022/04/04 03:21:36;;;;;;;5.35;3.70;;;;;;;-149.78;100.00;50385.38;5073278;28;20425;-72
2022/04/04 03:24:02;;;;;;;6.45;4.18;;;;;;;-149.78;100.00;50346.28;5084040;28;20353;-72
2022/04/04 03:26:31;;;;;;;8.10;4.75;;;;;;;-149.78;100.00;50354.09;5084289;28;20040;-72
2022/04/04 03:28:57;;;;;;;10.07;5.90;;;;;;;-149.78;100.00;50373.66;5073390;28;20135;-72
2022/04/04 03:31:22;;;;;;;8.60;4.90;;;;;;;-149.78;100.00;50373.66;5079073;28;20032;-72
2022/04/04 03:33:48;;;;;;;10.13;5.75;;;;;;;-149.78;100.00;50365.84;5094613;28;20032;-72
2022/04/04 03:36:14;;;;;;;7.35;4.80;;;;;;;-149.78;100.00;50375.63;5086213;28;20048;-72
2022/04/04 03:38:40;;;;;;;7.15;5.00;;;;;;;-149.78;100.00;50377.56;5057676;28;20037;-72
2022/04/04 03:41:05;;;;;;;9.25;5.70;;;;;;;-149.78;100.00;50389.31;5074413;28;20036;-72
2022/04/04 03:43:31;;;;;;;9.77;5.95;;;;;;;-149.78;100.00;50358.00;5077871;28;20035;-72
2022/04/04 03:45:57;;;;;;;10.77;6.00;;;;;;;-149.78;100.00;50375.63;5087615;28;20627;-72
2022/04/04 03:48:22;;;;;;;7.75;5.15;;;;;;;-149.78;100.00;50401.03;5085715;28;20036;-72
2022/04/04 03:50:51;;;;;;;9.48;6.97;;;;;;;-149.78;100.00;50365.84;5093461;28;20092;-72
2022/04/04 03:53:17;;;;;;;11.32;7.15;;;;;;;-149.78;100.00;50410.81;5089913;28;20032;-72
2022/04/04 03:55:43;;;;;;;13.05;8.18;;;;;;;-149.78;100.00;50330.63;5085854;28;20036;-72
2022/04/04 03:58:10;;;;;;;13.43;8.10;;;;;;;-149.78;100.00;50377.56;5081272;28;20032;-72
2022/04/04 04:00:38;;;;;;;12.75;8.30;;;;;;;-149.78;100.00;50358.00;5081134;28;20036;-72
2022/04/04 04:03:04;;;;;;;12.45;8.70;;;;;;;-149.78;100.00;50346.28;5075233;28;20033;-72
2022/04/04 04:05:30;;;;;;;13.23;8.55;;;;;;;-149.78;100.00;50397.13;5091479;28;20115;-72
2022/04/04 04:07:56;;;;;;;13.63;8.95;;;;;;;-149.78;100.00;50393.22;5081523;28;20107;-72
2022/04/04 04:10:22;;;;;;;15.00;9.30;;;;;;;-149.78;100.00;50365.84;5095060;28;20090;-73
2022/04/04 04:12:58;;;;;;;16.90;10.77;;;;;;;-149.78;100.00;50358.00;5079526;28;20043;-72
2022/04/04 04:15:25;;;;;;;16.42;9.77;;;;;;;-149.78;100.00;50365.84;5075156;28;20049;-73
2022/04/04 04:17:52;;;;;;;10.48;6.75;;;;;;;-149.78;100.00;50381.47;5057062;28;20123;-72
2022/04/04 04:20:26;;;;;;;10.77;6.88;;;;;;;-149.78;100.00;50393.22;5081208;28;20047;-73
2022/04/04 04:23:03;;;;;;;8.75;5.90;;;;;;;-149.78;100.00;50420.59;5094943;28;20060;-72
2022/04/04 04:25:31;;;;;;;9.38;6.70;;;;;;;-149.78;100.00;50342.38;5077801;28;20032;-72
2022/04/04 04:27:59;;;;;;;9.63;6.32;;;;;;;-149.78;100.00;50393.22;5094606;28;20123;-72
2022/04/04 04:30:25;;;;;;;10.70;7.00;;;;;;;-149.78;100.00;50369.75;5086295;28;20127;-72
2022/04/04 04:32:53;;;;;;;13.02;8.10;;;;;;;-149.78;100.00;50391.25;5079946;28;20068;-72
2022/04/04 04:35:19;;;;;;;12.02;7.60;;;;;;;-149.78;100.00;50387.34;5075606;28;20049;-72
2022/04/04 04:37:45;;;;;;;11.73;7.40;;;;;;;-149.78;100.00;50377.56;5087694;28;20056;-72
2022/04/04 04:40:12;;;;;;;12.75;7.80;;;;;;;-149.78;100.00;50359.97;5082699;28;20131;-72
2022/04/04 04:42:38;;;;;;;13.57;8.57;;;;;;;-149.78;100.00;50387.34;5096119;28;20130;-72
2022/04/04 04:45:06;;;;;;;13.27;8.70;;;;;;;-149.78;100.00;50389.31;5062949;28;20042;-72
2022/04/04 04:47:33;;;;;;;13.77;8.75;;;;;;;-149.78;100.00;50358.00;5096519;28;20024;-72
2022/04/04 04:50:00;;;;;;;10.55;6.47;;;;;;;-149.78;100.00;50342.38;5059458;28;20135;-72
2022/04/04 04:52:27;;;;;;;8.90;5.68;;;;;;;-149.78;100.00;50401.03;5088386;28;20058;-73
2022/04/04 04:54:53;;;;;;;8.63;5.88;;;;;;;-149.78;100.00;50342.38;5081134;28;20036;-72
2022/04/04 04:57:19;;;;;;;6.72;5.38;;;;;;;-149.78;100.00;50367.78;5093376;28;20036;-72
2022/04/04 04:59:45;;;;;;;6.53;4.57;;;;;;;-149.78;100.00;50358.00;5082515;28;20032;-72
2022/04/04 05:02:11;;;;;;;4.40;3.08;;;;;;;-149.78;100.00;50340.41;5084725;28;20034;-72
2022/04/04 05:04:37;;;;;;;5.50;3.95;;;;;;;-149.78;100.00;50393.22;5091724;28;20040;-72
2022/04/04 05:07:05;;;;;;;5.47;3.95;;;;;;;-149.78;100.00;50369.75;5075571;28;20067;-70
2022/04/04 05:09:30;;;;;;;5.00;3.40;;;;;;;-149.78;100.00;50361.91;5060753;28;20038;-70
2022/04/04 05:11:56;;;;;;;4.20;2.92;;;;;;;-149.78;100.00;50373.66;5086764;28;20036;-69
2022/04/04 05:14:21;;;;;;;3.55;2.55;;;;;;;-149.78;100.00;50377.56;5084156;28;20036;-69
2022/04/04 05:16:48;;;;;;;4.00;2.97;;;;;;;-149.78;100.00;50354.09;5080844;28;20032;-69
2022/04/04 05:19:19;;;;;;;4.97;2.75;;;;;;;-149.78;100.00;50342.38;5091481;28;20429;-69
2022/04/04 05:21:46;;;;;;;6.13;3.08;;;;;;;-149.78;100.00;50379.53;5080464;28;20043;-70
2022/04/04 05:24:12;;;;;;;2.58;2.15;;;;;;;-149.78;100.00;50383.44;5084412;28;20032;-69
2022/04/04 05:26:38;;;;;;;3.80;2.58;;;;;;;-149.78;100.00;50403.00;5086246;28;20039;-69
2022/04/04 05:29:04;;;;;;;3.15;1.73;;;;;;;-149.78;100.00;50365.84;5078122;28;20480;-69
2022/04/04 05:31:30;;;;;;;2.30;1.73;;;;;;;-149.78;100.00;50358.00;5077188;28;20031;-69
2022/04/04 05:34:01;;;;;;;1.92;1.63;;;;;;;-149.78;100.00;50365.84;5086064;28;20052;-70
2022/04/04 05:36:28;;;;;;;2.72;1.63;;;;;;;-149.78;100.00;50371.69;5084319;28;20119;-69
2022/04/04 05:38:55;;;;;;;1.98;1.20;;;;;;;-149.78;100.00;50342.38;5079224;28;20033;-70
2022/04/04 05:41:23;;;;;;;1.50;1.20;;;;;;;-149.78;100.00;50330.63;5089577;28;20134;-69
2022/04/04 05:43:48;;;;;;;1.30;1.00;;;;;;;-149.78;100.00;50354.09;5079044;28;20123;-69
2022/04/04 05:46:15;;;;;;;2.35;1.00;;;;;;;-149.78;100.00;50324.75;5081899;28;20040;-69
2022/04/04 05:48:42;;;;;;;2.53;1.35;;;;;;;-149.78;100.00;50350.19;5078193;28;20032;-69
2022/04/04 05:51:09;;;;;;;1.17;1.08;;;;;;;-149.78;100.00;50389.31;5080828;28;20480;-69
2022/04/04 05:53:35;;;;;;;1.48;1.10;;;;;;;-149.78;100.00;50348.22;5060310;28;20101;-71
2022/04/04 05:56:02;;;;;;;3.72;0.95;;;;;;;-149.78;100.00;50365.84;5078063;28;20040;-70
2022/04/04 05:58:28;;;;;;;2.55;1.42;;;;;;;-149.78;100.00;50334.53;5079693;28;20480;-69
2022/04/04 06:00:53;;;;;;;1.20;1.10;;;;;;;-149.78;100.00;50346.28;5079126;28;20086;-69
2022/04/04 06:03:19;;;;;;;3.38;1.48;;;;;;;-149.78;100.00;50346.28;5090094;28;20038;-69
2022/04/04 06:05:49;;;;;;;1.85;1.17;;;;;;;-149.78;100.00;50361.91;5077640;28;20642;-69
2022/04/04 06:08:18;;;;;;;1.85;1.10;;;;;;;-149.78;100.00;50344.31;5088813;28;20039;-69
2022/04/04 06:10:45;;;;;;;1.33;1.00;;;;;;;-149.78;100.00;50397.13;5093101;28;20123;-69
2022/04/04 06:13:19;;;;;;;1.58;1.02;;;;;;;-149.78;100.00;50375.63;5093132;28;20043;-70
2022/04/04 06:15:46;;;;;;;1.05;0.95;;;;;;;-149.78;100.00;50338.44;5076509;28;20036;-73
2022/04/04 06:18:13;;;;;;;1.52;0.93;;;;;;;-149.78;100.00;50365.84;5090700;28;20050;-74
2022/04/04 06:20:38;;;;;;;1.08;0.85;;;;;;;-149.78;100.00;50369.75;5077355;28;20036;-73
2022/04/04 06:23:04;;;;;;;0.98;0.80;;;;;;;-149.78;100.00;50338.44;5074804;28;20032;-69
2022/04/04 06:25:31;;;;;;;1.30;0.70;;;;;;;-149.78;100.00;50385.38;5075555;28;20043;-70
2022/04/04 06:27:57;;;;;;;1.33;0.82;;;;;;;-149.78;100.00;50361.91;5084346;28;20021;-69
2022/04/04 06:30:23;;;;;;;0.70;0.70;;;;;;;-149.78;100.00;50336.50;5087008;28;20031;-68
2022/04/04 06:32:49;;;;;;;0.77;0.63;;;;;;;-149.78;100.00;50338.44;5079085;28;20081;-69
2022/04/04 06:35:15;;;;;;;0.50;0.50;;;;;;;-149.78;100.00;50377.56;5088471;28;20091;-68
2022/04/04 06:37:42;;;;;;;1.05;0.80;;;;;;;-149.78;100.00;50342.38;5078087;28;20028;-68
2022/04/04 06:40:09;;;;;;;1.02;0.80;;;;;;;-149.78;100.00;50346.28;5083611;28;20131;-68
2022/04/04 06:42:36;;;;;;;1.38;0.50;;;;;;;-149.78;100.00;50385.38;5076571;28;20149;-68
2022/04/04 06:45:03;;;;;;;1.67;0.70;;;;;;;-149.78;100.00;50361.91;5089561;28;20089;-68
2022/04/04 06:47:30;;;;;;;2.53;0.60;;;;;;;-149.78;100.00;50342.38;5075685;28;20024;-68
2022/04/04 06:49:57;;;;;;;1.05;0.60;;;;;;;-149.78;100.00;50342.38;5083380;28;20062;-68
2022/04/04 06:52:23;;;;;;;1.77;0.57;;;;;;;-149.78;100.00;50369.75;5080650;28;20067;-69
2022/04/04 06:54:49;;;;;;;0.65;0.50;;;;;;;-149.78;100.00;50320.84;5077624;28;20128;-69
2022/04/04 06:57:16;;;;;;;0.50;0.50;;;;;;;-149.78;100.00;50314.97;5087746;28;20126;-69
2022/04/04 06:59:42;;;;;;;0.98;0.50;;;;;;;-149.78;100.00;50293.47;5077522;28;20048;-68
2022/04/04 07:02:09;;;;;;;1.10;0.80;;;;;;;-149.78;100.00;50322.81;5082558;28;20506;-69
2022/04/04 07:04:34;;;;;;;2.83;0.70;;;;;;;-149.78;100.00;50363.88;5084202;28;20058;-68
2022/04/04 07:07:00;;;;;;;1.33;0.65;;;;;;;-149.78;100.00;50332.59;5084475;28;20032;-69
2022/04/04 07:09:26;;;;;;;0.93;0.80;;;;;;;-149.78;100.00;50342.38;5067391;28;20055;-68
2022/04/04 07:11:51;;;;;;;2.42;0.88;;;;;;;-149.78;100.00;50365.84;5082293;28;20123;-68
2022/04/04 07:14:18;;;;;;;1.35;1.02;;;;;;;-149.78;100.00;50314.97;5077930;28;20480;-68
2022/04/04 07:16:44;;;;;;;1.88;1.10;;;;;;;-149.78;100.00;50346.28;5085544;28;20028;-68
2022/04/04 07:19:16;;;;;;;2.50;0.93;;;;;;;-149.78;100.00;50354.09;5079680;28;20040;-69
2022/04/04 07:21:42;;;;;;;0.93;0.73;;;;;;;-149.78;100.00;50342.38;5080844;28;20367;-69
2022/04/04 07:24:08;;;;;;;0.90;0.70;;;;;;;-149.78;100.00;50342.38;5082870;28;20056;-69
2022/04/04 07:26:35;;;;;;;1.73;0.68;;;;;;;-149.78;100.00;50330.63;5084585;28;20460;-69
2022/04/04 07:29:01;;;;;;;0.73;0.60;;;;;;;-149.78;100.00;50322.81;5080329;28;20086;-68
2022/04/04 07:31:29;;;;;;;0.95;0.68;;;;;;;-149.78;100.00;50314.97;5079178;28;20051;-69
2022/04/04 07:33:55;;;;;;;1.20;0.70;;;;;;;-149.78;100.00;50346.28;5079547;28;20044;-68
2022/04/04 07:36:21;;;;;;;1.40;0.68;;;;;;;-149.78;100.00;50350.19;5055678;28;20129;-69
2022/04/04 07:38:47;;;;;;;0.95;0.60;;;;;;;-149.78;100.00;50354.09;5072129;28;20137;-69
2022/04/04 07:41:13;;;;;;;1.25;0.68;;;;;;;-149.78;100.00;50340.41;5081069;28;20480;-69
2022/04/04 07:43:38;;;;;;;1.42;0.80;;;;;;;-149.78;100.00;50346.28;5073997;28;20073;-69
2022/04/04 07:46:05;;;;;;;0.93;0.70;;;;;;;-149.78;100.00;50326.72;5082110;28;20086;-69
2022/04/04 07:48:32;;;;;;;1.05;0.50;;;;;;;-149.78;100.00;50334.53;5073144;28;20036;-68
2022/04/04 07:50:58;;;;;;;1.40;0.60;;;;;;;-149.78;100.00;50307.16;5061089;28;20036;-68
2022/04/04 07:53:24;;;;;;;0.82;0.45;;;;;;;-149.78;100.00;50311.06;5081492;28;20032;-68
2022/04/04 07:55:50;;;;;;;0.60;0.60;;;;;;;-149.78;100.00;50314.97;5080460;28;20047;-68
2022/04/04 07:58:17;;;;;;;2.03;0.50;;;;;;;-149.78;100.00;50311.06;5077578;28;20036;-68
2022/04/04 08:00:44;;;;;;;2.03;0.52;;;;;;;-149.78;100.00;50326.72;5081568;28;20117;-69
2022/04/04 08:03:12;;;;;;;2.78;0.65;;;;;;;-149.78;100.00;50322.81;5070642;28;20059;-68
2022/04/04 08:05:38;;;;;;;0.43;0.40;;;;;;;-149.78;100.00;50299.34;5088493;28;20036;-69
2022/04/04 08:08:04;;;;;;;0.50;0.50;;;;;;;-149.78;100.00;50264.13;5078857;28;20031;-69
2022/04/04 08:10:30;;;;;;;1.45;0.60;;;;;;;-149.78;100.00;50264.13;5079449;28;20117;-68
2022/04/04 08:12:56;;;;;;;0.55;0.45;;;;;;;-149.78;100.00;50248.50;5078117;28;20048;-69
2022/04/04 08:15:22;;;;;;;0.22;0.22;;;;;;;-149.78;100.00;50228.94;5077590;28;20037;-69
2022/04/04 08:17:47;;;;;;;0.75;0.40;;;;;;;-149.78;100.00;50178.09;5075972;28;20039;-69
2022/04/04 08:20:13;;;;;;;0.65;0.30;;;;;;;-149.78;100.00;50178.09;5077013;28;20033;-69
2022/04/04 08:22:44;;;;;;;0.52;0.30;;;;;;;-149.78;100.00;50225.03;5076373;28;20078;-69
2022/04/04 08:25:12;;;;;;;0.47;0.30;;;;;;;-149.78;100.00;50277.81;5081258;28;20522;-69
2022/04/04 08:27:38;;;;;;;1.45;1.05;;;;;;;-149.78;100.00;50273.91;5076366;28;20036;-68
2022/04/04 08:30:06;;;;;;;0.35;0.35;;;;;;;-149.78;100.00;50225.03;5077245;28;20032;-69
2022/04/04 08:32:38;;;;;;;0.75;0.50;;;;;;;-149.78;100.00;50217.19;5084755;28;20387;-68
2022/04/04 08:35:09;;;;;;;1.02;0.80;;;;;;;-149.78;100.00;50252.41;5076275;28;20040;-69
2022/04/04 08:37:36;;;;;;;0.40;0.40;;;;;;;-149.78;100.00;50189.81;5077869;28;20032;-69
2022/04/04 08:40:05;;;;;;;0.68;0.47;;;;;;;-149.78;100.00;50213.28;5081769;28;20031;-69
2022/04/04 08:42:31;;;;;;;1.58;0.60;;;;;;;-149.78;100.00;50219.16;5081299;28;20115;-68
2022/04/04 08:45:00;;;;;;;1.08;0.47;;;;;;;-149.78;100.00;50217.19;5079691;28;20036;-69
2022/04/04 08:47:29;;;;;;;0.75;0.40;;;;;;;-149.78;100.00;50268.03;5083302;28;20029;-69
2022/04/04 08:49:57;;;;;;;1.05;0.60;;;;;;;-149.78;100.00;50260.22;5082031;28;20044;-68
2022/04/04 08:52:23;;;;;;;0.80;0.52;;;;;;;-149.78;100.00;50268.03;5082437;28;20376;-68
2022/04/04 08:54:49;;;;;;;0.95;0.50;;;;;;;-149.78;100.00;50236.75;5085904;28;20119;-69
2022/04/04 08:57:16;;;;;;;0.65;0.60;;;;;;;-149.78;100.00;50260.22;5076815;28;20134;-69
2022/04/04 08:59:42;;;;;;;2.05;1.45;;;;;;;-149.78;100.00;50318.91;5072856;28;20376;-69
2022/04/04 09:02:10;;;;;;;0.75;0.52;;;;;;;-149.78;100.00;50254.34;5076721;28;20124;-69
2022/04/04 09:04:35;;;;;;;2.40;0.70;;;;;;;-149.78;100.00;50264.13;5080004;28;20032;-69
2022/04/04 09:07:06;;;;;;;1.10;0.65;;;;;;;-149.78;100.00;50264.13;5071420;28;20038;-69
2022/04/04 09:09:44;;;;;;;0.60;0.60;;;;;;;-149.78;100.00;50295.44;5081355;28;20040;-69
2022/04/04 09:12:10;;;;;;;1.00;0.40;;;;;;;-149.78;100.00;50277.81;5077175;28;20063;-69
2022/04/04 09:14:42;;;;;;;0.60;0.57;;;;;;;-149.78;100.00;50295.44;5074262;28;20421;-68
2022/04/04 09:17:10;;;;;;;0.57;0.50;;;;;;;-149.78;100.00;50322.81;5063531;28;20035;-69
2022/04/04 09:19:37;;;;;;;4.75;0.60;;;;;;;-149.78;100.00;50299.34;5077605;28;20798;-68
2022/04/04 09:22:06;;;;;;;0.95;0.70;;;;;;;-149.78;100.00;50291.50;5079951;28;20106;-69
2022/04/04 09:24:57;;;;;;;0.65;0.57;;;;;;;-149.78;100.00;50303.25;5082794;28;20036;-70
2022/04/04 09:27:24;;;;;;;1.17;0.60;;;;;;;-149.78;100.00;50283.69;5075560;28;20032;-70
2022/04/04 09:29:53;;;;;;;0.82;0.60;;;;;;;-149.78;100.00;50299.34;5086505;28;20101;-69
2022/04/04 09:32:20;;;;;;;2.20;0.60;;;;;;;-149.78;100.00;50283.69;5089329;28;20097;-69
2022/04/04 09:35:08;;;;;;;1.77;0.60;;;;;;;-149.78;100.00;50271.97;5081016;28;20052;-70
2022/04/04 09:37:36;;;;;;;0.88;0.55;;;;;;;-149.78;100.00;50322.81;5078320;28;20028;-70
2022/04/04 09:40:06;;;;;;;0.82;0.45;;;;;;;-149.78;100.00;50303.25;5081911;28;20072;-69
2022/04/04 09:42:33;;;;;;;0.55;0.40;;;;;;;-149.78;100.00;50311.06;5086470;28;20059;-70
2022/04/04 09:45:09;;;;;;;0.73;0.50;;;;;;;-149.78;100.00;50334.53;5060514;28;20040;-70
2022/04/04 09:48:06;;;;;;;0.68;0.50;;;;;;;-149.78;100.00;50307.16;5078363;28;20066;-70
2022/04/04 09:50:41;;;;;;;2.67;0.60;;;;;;;-149.78;100.00;50305.22;5080570;28;20051;-70
2022/04/04 09:53:22;;;;;;;0.50;0.40;;;;;;;-149.78;100.00;50303.25;5072357;28;20040;-70
2022/04/04 09:55:55;;;;;;;1.80;0.65;;;;;;;-149.78;100.00;50311.06;5079868;28;20149;-70
2022/04/04 09:58:22;;;;;;;0.68;0.50;;;;;;;-149.78;100.00;50326.72;5083278;28;20076;-70
2022/04/04 10:00:49;;;;;;;2.92;0.70;;;;;;;-149.78;100.00;50338.44;5072751;28;20035;-70
2022/04/04 10:03:16;;;;;;;2.05;0.60;;;;;;;-149.78;100.00;50287.59;5089279;28;20039;-70
2022/04/04 10:05:44;;;;;;;3.10;0.73;;;;;;;-149.78;100.00;50311.06;5077685;28;20042;-70
2022/04/04 10:08:15;;;;;;;1.27;0.45;;;;;;;-149.78;100.00;50303.25;5072113;28;20043;-70
2022/04/04 10:10:42;;;;;;;0.80;0.50;;;;;;;-149.78;100.00;50307.16;5083354;28;20028;-69
2022/04/04 10:13:11;;;;;;;1.15;0.50;;;;;;;-149.78;100.00;50328.69;5077873;28;20036;-69
2022/04/04 10:15:37;;;;;;;1.83;0.68;;;;;;;-149.78;100.00;50279.78;5076787;28;20442;-70
2022/04/04 10:18:03;;;;;;;0.65;0.45;;;;;;;-149.78;100.00;50301.28;5084325;28;20051;-70
2022/04/04 10:20:29;;;;;;;0.60;0.45;;;;;;;-149.78;100.00;50328.69;5085319;28;20146;-69
2022/04/04 10:22:56;;;;;;;1.75;0.90;;;;;;;-149.78;100.00;50311.06;5085499;28;20479;-69
2022/04/04 10:25:28;;;;;;;0.98;0.70;;;;;;;-149.78;100.00;50303.25;5083407;28;20043;-69
2022/04/04 10:27:54;;;;;;;0.60;0.50;;;;;;;-149.78;100.00;50322.81;5083633;28;20024;-70
2022/04/04 10:30:40;;;;;;;0.90;0.52;;;;;;;-149.78;100.00;50283.69;5077364;28;20032;-70
2022/04/04 10:33:23;;;;;;;1.63;0.80;;;;;;;-149.78;100.00;50311.06;5078883;28;20051;-69
2022/04/04 10:36:06;;;;;;;1.25;0.60;;;;;;;-149.78;100.00;50299.34;5075877;28;20040;-69
2022/04/04 10:38:37;;;;;;;1.48;0.50;;;;;;;-149.78;100.00;50324.75;5067694;28;20032;-69
2022/04/04 10:41:07;;;;;;;0.88;0.60;;;;;;;-149.78;100.00;50307.16;5076114;28;20036;-70
2022/04/04 10:43:43;;;;;;;1.38;0.70;;;;;;;-149.78;100.00;50307.16;5076158;28;20030;-69
2022/04/04 10:46:11;;;;;;;1.63;0.70;;;;;;;-149.78;100.00;50287.59;5074559;28;20025;-69
2022/04/04 10:48:42;;;;;;;2.35;0.90;;;;;;;-149.78;100.00;50334.53;5077933;28;20484;-69
2022/04/04 10:51:12;;;;;;;2.15;1.30;;;;;;;-149.78;100.00;50307.16;5083370;28;20024;-69
2022/04/04 10:53:39;;;;;;;1.23;1.10;;;;;;;-149.78;100.00;50334.53;5078596;28;20028;-69
2022/04/04 10:56:08;;;;;;;1.20;0.85;;;;;;;-149.78;100.00;50330.63;5083457;28;20039;-69
2022/04/04 10:58:34;;;;;;;1.30;0.75;;;;;;;-149.78;100.00;50307.16;5084111;28;20051;-69
2022/04/04 11:01:07;;;;;;;2.78;1.60;;;;;;;-149.78;100.00;50303.25;5080703;28;20515;-69
2022/04/04 11:03:40;;;;;;;2.97;1.20;;;;;;;-149.78;100.00;50318.91;5076069;28;20039;-69
2022/04/04 11:08:59;;;;;;;2.03;1.00;;;;;;;-149.78;100.00;50326.72;5079260;28;20475;-70
2022/04/04 11:11:49;;;;;;;1.30;1.05;;;;;;;-149.78;100.00;50285.66;5092767;28;20039;-69